Time;durP1;ratioP1;P1;durP2;ratioP2;P2;SDS_P1;SDS_P2;PMS_P1;PMS_P2;Temp;Humidity;BMP_temperature;BMP_pressure;BME280_temperature;BME280_humidity;BME280_pressure;Samples;Min_cycle;Max_cycle;Signal;HPM_P1;HPM_P2
2022/03/07 00:00:34;;;;;;;10.82;5.97;;;;;;;0.24;55.23;99331.88;5030651;28;20116;-73
2022/03/07 00:02:59;;;;;;;11.07;5.63;;;;;;;0.26;54.96;99325.47;5037236;28;20025;-70
2022/03/07 00:05:25;;;;;;;12.57;5.88;;;;;;;0.47;55.04;99351.31;5031441;28;20080;-70
2022/03/07 00:07:50;;;;;;;9.80;5.68;;;;;;;0.20;55.16;99326.81;5030973;28;20026;-69
2022/03/07 00:10:16;;;;;;;11.05;6.00;;;;;;;0.18;55.65;99330.56;5030444;28;20026;-71
2022/03/07 00:12:41;;;;;;;13.75;5.57;;;;;;;0.32;55.59;99353.41;5028436;28;20056;-73
2022/03/07 00:15:07;;;;;;;11.32;6.43;;;;;;;0.20;55.85;99336.63;5031897;28;20038;-70
2022/03/07 00:17:32;;;;;;;11.82;5.80;;;;;;;0.35;55.28;99351.34;5028312;28;20053;-72
2022/03/07 00:19:57;;;;;;;8.40;5.53;;;;;;;0.31;54.81;99357.03;5011783;28;20084;-70
2022/03/07 00:22:22;;;;;;;9.90;5.07;;;;;;;0.20;54.79;99360.56;5029558;28;20074;-69
2022/03/07 00:24:48;;;;;;;7.32;5.15;;;;;;;0.14;54.76;99351.25;5032929;28;20025;-70
2022/03/07 00:27:13;;;;;;;9.43;5.22;;;;;;;0.16;54.58;99352.00;5030727;28;20029;-70
2022/03/07 00:29:38;;;;;;;8.52;5.40;;;;;;;0.18;54.96;99357.16;5031382;28;20034;-68
2022/03/07 00:32:04;;;;;;;11.27;5.00;;;;;;;0.02;54.59;99332.78;5031301;28;20075;-70
2022/03/07 00:34:29;;;;;;;10.40;4.90;;;;;;;0.03;54.00;99340.66;5024416;28;20132;-70
2022/03/07 00:36:55;;;;;;;7.50;4.65;;;;;;;0.09;55.28;99355.28;5014575;28;20061;-71
2022/03/07 00:39:20;;;;;;;9.48;5.13;;;;;;;0.09;55.11;99357.94;5033756;28;20495;-71
2022/03/07 00:41:45;;;;;;;8.88;5.15;;;;;;;-0.11;55.42;99343.56;5035160;28;20026;-71
2022/03/07 00:44:11;;;;;;;9.75;5.60;;;;;;;-0.17;55.84;99350.22;5034476;28;20029;-69
2022/03/07 00:46:36;;;;;;;9.98;5.28;;;;;;;-0.24;55.40;99349.88;5034649;28;20033;-70
2022/03/07 00:49:01;;;;;;;8.30;4.97;;;;;;;-0.13;56.12;99362.31;5035527;28;20128;-70
2022/03/07 00:51:27;;;;;;;7.55;4.78;;;;;;;-0.28;56.53;99337.75;5033403;28;20029;-71
2022/03/07 00:53:52;;;;;;;9.27;5.18;;;;;;;-0.36;56.17;99348.16;5037553;28;20025;-71
2022/03/07 00:56:17;;;;;;;11.45;5.00;;;;;;;-0.37;56.34;99353.59;5034679;28;20500;-70
2022/03/07 00:58:43;;;;;;;8.80;5.03;;;;;;;-0.46;56.83;99344.53;5019077;28;20112;-71
2022/03/07 01:01:08;;;;;;;7.53;4.90;;;;;;;-0.36;55.96;99360.63;5031403;28;20500;-70
2022/03/07 01:03:34;;;;;;;10.20;5.50;;;;;;;-0.39;56.58;99361.69;5033579;28;20069;-70
2022/03/07 01:05:59;;;;;;;10.23;5.28;;;;;;;-0.39;56.49;99364.34;5034472;28;20025;-70
2022/03/07 01:08:26;;;;;;;10.65;5.53;;;;;;;-0.60;56.86;99332.31;5034733;28;20041;-70
2022/03/07 01:10:52;;;;;;;7.97;5.10;;;;;;;-0.54;56.90;99363.72;5033251;28;20032;-71
2022/03/07 01:13:18;;;;;;;9.52;5.07;;;;;;;-0.77;56.83;99336.28;5033443;28;20405;-70
2022/03/07 01:15:44;;;;;;;9.27;4.75;;;;;;;-0.69;56.84;99354.28;5036213;28;20033;-72
2022/03/07 01:18:09;;;;;;;8.10;4.80;;;;;;;-0.67;57.54;99352.34;5024768;28;20629;-70
2022/03/07 01:20:34;;;;;;;8.07;5.13;;;;;;;-0.74;57.19;99356.44;5035014;28;20477;-70
2022/03/07 01:23:00;;;;;;;6.82;4.53;;;;;;;-0.92;56.81;99326.81;5018184;28;20025;-70
2022/03/07 01:25:26;;;;;;;9.48;5.70;;;;;;;-0.80;55.88;99347.13;5035054;28;20108;-71
2022/03/07 01:27:51;;;;;;;8.25;5.55;;;;;;;-0.76;55.64;99353.06;5017567;28;20111;-69
2022/03/07 01:30:17;;;;;;;7.88;5.00;;;;;;;-0.88;56.13;99325.63;5037532;28;20071;-70
2022/03/07 01:32:42;;;;;;;8.65;5.43;;;;;;;-0.80;55.81;99347.13;5022673;28;20123;-70
2022/03/07 01:35:08;;;;;;;13.52;6.22;;;;;;;-0.94;55.99;99350.88;5038883;28;20076;-71
2022/03/07 01:37:34;;;;;;;9.10;5.70;;;;;;;-1.07;56.79;99350.09;5035686;28;20029;-69
2022/03/07 01:39:59;;;;;;;9.88;5.82;;;;;;;-1.31;56.34;99326.25;5018347;28;20026;-70
2022/03/07 01:42:25;;;;;;;8.90;5.90;;;;;;;-1.22;56.60;99340.63;5018354;28;20445;-69
2022/03/07 01:44:50;;;;;;;11.48;5.80;;;;;;;-1.26;56.57;99349.78;5022994;28;20076;-70
2022/03/07 01:47:15;;;;;;;10.43;5.72;;;;;;;-1.52;56.76;99301.28;5036003;28;20519;-70
2022/03/07 01:49:41;;;;;;;11.23;5.28;;;;;;;-1.44;56.77;99333.41;5015633;28;20021;-71
2022/03/07 01:52:07;;;;;;;10.75;6.20;;;;;;;-1.59;57.15;99341.56;5035353;28;20131;-71
2022/03/07 01:54:33;;;;;;;9.85;5.63;;;;;;;-1.61;57.16;99335.50;5034233;28;20098;-71
2022/03/07 01:56:58;;;;;;;12.57;6.38;;;;;;;-1.68;57.42;99328.97;5018224;28;20033;-70
2022/03/07 01:59:27;;;;;;;11.40;6.30;;;;;;;-1.81;57.57;99322.88;5030612;28;20034;-70
2022/03/07 02:01:53;;;;;;;10.97;6.00;;;;;;;-1.76;56.84;99312.75;5028514;28;20570;-70
2022/03/07 02:04:18;;;;;;;10.98;6.22;;;;;;;-1.66;56.95;99323.56;5033652;28;20271;-70
2022/03/07 02:06:45;;;;;;;12.00;6.22;;;;;;;-1.84;57.23;99307.19;5040172;28;20029;-69
2022/03/07 02:09:11;;;;;;;11.32;6.55;;;;;;;-1.87;57.55;99312.72;5039138;28;20029;-71
2022/03/07 02:11:37;;;;;;;11.18;6.30;;;;;;;-1.85;56.50;99326.72;5036525;28;20033;-70
2022/03/07 02:14:17;;;;;;;10.80;5.82;;;;;;;-1.91;56.43;99327.13;5034625;28;20057;-71
2022/03/07 02:16:44;;;;;;;13.95;6.22;;;;;;;-1.93;56.69;99319.31;5008170;28;20096;-70
2022/03/07 02:19:09;;;;;;;9.75;6.13;;;;;;;-2.05;57.29;99320.19;5038593;28;20097;-70
2022/03/07 02:21:36;;;;;;;10.60;6.28;;;;;;;-2.08;57.67;99323.06;5038680;28;20618;-70
2022/03/07 02:24:02;;;;;;;11.95;6.45;;;;;;;-2.17;57.84;99324.59;5021054;28;20021;-70
2022/03/07 02:26:28;;;;;;;14.55;7.10;;;;;;;-2.28;57.61;99314.75;5039237;28;20032;-70
2022/03/07 02:28:53;;;;;;;11.30;6.35;;;;;;;-2.44;58.30;99288.50;5036487;28;20021;-70
2022/03/07 02:31:20;;;;;;;10.90;6.47;;;;;;;-2.20;57.54;99311.56;5037408;28;20022;-69
2022/03/07 02:33:46;;;;;;;13.25;6.13;;;;;;;-2.24;57.79;99305.59;5027877;28;20021;-70
2022/03/07 02:36:12;;;;;;;14.40;7.20;;;;;;;-2.40;57.80;99294.41;5022490;28;20473;-70
2022/03/07 02:38:37;;;;;;;12.43;7.15;;;;;;;-2.73;57.91;99245.50;5036806;28;20056;-71
2022/03/07 02:41:03;;;;;;;10.63;6.55;;;;;;;-2.43;58.40;99284.03;5037683;28;20056;-69
2022/03/07 02:43:28;;;;;;;13.55;7.05;;;;;;;-2.53;58.33;99297.09;5026117;28;20025;-70
2022/03/07 02:45:55;;;;;;;12.30;6.85;;;;;;;-2.50;57.90;99291.56;5034677;28;20029;-71
2022/03/07 02:48:21;;;;;;;12.82;6.97;;;;;;;-2.33;57.83;99308.06;5030790;28;20676;-71
2022/03/07 02:50:46;;;;;;;11.98;6.38;;;;;;;-2.29;57.78;99301.59;5034374;28;20053;-70
2022/03/07 02:53:12;;;;;;;15.32;6.60;;;;;;;-2.24;57.24;99304.78;5037978;28;20428;-70
2022/03/07 02:55:37;;;;;;;12.52;7.05;;;;;;;-2.31;57.84;99312.31;5033943;28;20033;-71
2022/03/07 02:58:03;;;;;;;13.63;6.68;;;;;;;-2.53;57.26;99260.00;5028485;28;20053;-70
2022/03/07 03:00:29;;;;;;;11.00;6.95;;;;;;;-2.43;58.07;99300.78;5013593;28;20465;-70
2022/03/07 03:02:55;;;;;;;11.82;7.00;;;;;;;-2.42;57.98;99318.38;5033019;28;20106;-71
2022/03/07 03:05:20;;;;;;;12.30;7.30;;;;;;;-2.57;57.85;99281.50;5032564;28;20056;-70
2022/03/07 03:07:47;;;;;;;11.77;6.70;;;;;;;-2.65;58.39;99277.63;5072371;22;20048;-73
2022/03/07 03:10:13;;;;;;;15.20;7.30;;;;;;;-2.46;57.84;99305.47;5053308;28;20087;-73
2022/03/07 03:12:38;;;;;;;12.52;6.60;;;;;;;-2.35;57.93;99313.50;5046634;28;20063;-73
2022/03/07 03:15:04;;;;;;;11.02;6.22;;;;;;;-2.64;58.56;99283.75;5048557;28;20033;-73
2022/03/07 03:17:30;;;;;;;13.63;7.43;;;;;;;-2.47;58.75;99314.34;5031378;28;20063;-73
2022/03/07 03:19:56;;;;;;;12.73;7.05;;;;;;;-2.65;58.74;99293.53;5032854;28;20123;-73
2022/03/07 03:22:21;;;;;;;12.98;6.88;;;;;;;-2.53;59.21;99296.25;5024736;28;20511;-73
2022/03/07 03:24:48;;;;;;;14.70;7.10;;;;;;;-2.48;59.48;99318.81;5052795;28;20483;-73
2022/03/07 03:27:13;;;;;;;14.63;7.43;;;;;;;-2.75;59.47;99289.81;5034035;28;20028;-73
2022/03/07 03:29:38;;;;;;;13.75;7.13;;;;;;;-2.82;59.72;99299.13;5022299;28;20037;-73
2022/03/07 03:32:04;;;;;;;12.45;7.00;;;;;;;-2.65;60.59;99327.94;5033756;28;20040;-73
2022/03/07 03:34:30;;;;;;;12.43;7.13;;;;;;;-2.61;60.36;99325.91;5032469;28;20029;-73
2022/03/07 03:36:55;;;;;;;14.93;7.22;;;;;;;-2.67;59.89;99315.75;5031684;28;20060;-73
2022/03/07 03:39:20;;;;;;;17.05;6.72;;;;;;;-2.69;60.13;99304.44;5036640;28;20068;-73
2022/03/07 03:41:46;;;;;;;12.15;6.68;;;;;;;-2.67;60.48;99323.72;5046955;28;20061;-73
2022/03/07 03:44:11;;;;;;;13.73;8.05;;;;;;;-2.87;61.01;99310.03;5032421;28;20088;-73
2022/03/07 03:46:37;;;;;;;11.57;7.00;;;;;;;-2.92;61.27;99314.81;5031548;28;20083;-73
2022/03/07 03:49:03;;;;;;;14.35;7.35;;;;;;;-3.03;61.63;99304.09;5029816;28;20025;-73
2022/03/07 03:51:28;;;;;;;15.52;7.60;;;;;;;-3.02;62.05;99323.47;5050562;28;20144;-73
2022/03/07 03:53:54;;;;;;;11.93;6.50;;;;;;;-2.98;63.01;99325.81;5052556;28;20035;-73
2022/03/07 03:56:19;;;;;;;11.82;6.65;;;;;;;-3.02;63.46;99326.13;5048761;28;20119;-73
2022/03/07 03:58:44;;;;;;;12.82;6.53;;;;;;;-3.13;65.05;99305.69;5018408;28;20448;-73
2022/03/07 04:01:10;;;;;;;15.40;6.93;;;;;;;-3.05;66.09;99313.94;5031944;28;20353;-74
2022/03/07 04:03:35;;;;;;;12.25;7.03;;;;;;;-3.22;67.56;99314.22;5052394;28;20514;-73
2022/03/07 04:06:00;;;;;;;10.60;6.13;;;;;;;-3.04;68.70;99331.50;5030729;28;20056;-73
2022/03/07 04:08:25;;;;;;;11.00;6.43;;;;;;;-3.21;69.08;99308.84;5031985;28;20116;-73
2022/03/07 04:10:51;;;;;;;12.23;6.75;;;;;;;-3.08;70.50;99338.81;5043733;28;20032;-74
2022/03/07 04:13:16;;;;;;;10.77;6.15;;;;;;;-3.20;71.15;99322.91;5054544;28;20033;-73
2022/03/07 04:15:41;;;;;;;12.85;6.28;;;;;;;-3.10;71.20;99335.44;5051668;28;20032;-74
2022/03/07 04:18:07;;;;;;;11.40;6.38;;;;;;;-3.08;71.15;99324.75;5050068;28;20029;-74
2022/03/07 04:20:33;;;;;;;14.25;6.60;;;;;;;-3.01;71.52;99338.41;5036912;28;20052;-74
2022/03/07 04:23:00;;;;;;;13.13;6.40;;;;;;;-3.01;71.89;99335.75;5045741;28;20029;-73
2022/03/07 04:25:25;;;;;;;12.60;5.97;;;;;;;-3.31;72.18;99300.69;5048506;28;20094;-73
2022/03/07 04:27:50;;;;;;;11.05;6.63;;;;;;;-3.19;72.87;99329.94;5046569;28;20464;-73
2022/03/07 04:30:16;;;;;;;11.10;6.40;;;;;;;-3.22;72.53;99317.75;5034228;28;20025;-73
2022/03/07 04:32:41;;;;;;;10.35;6.38;;;;;;;-3.05;72.27;99343.06;5047894;28;20420;-73
2022/03/07 04:35:08;;;;;;;18.48;6.63;;;;;;;-3.16;72.32;99332.34;5030644;28;20033;-74
2022/03/07 04:37:35;;;;;;;14.60;6.25;;;;;;;-3.07;72.05;99342.31;5039530;28;20037;-74
2022/03/07 04:40:01;;;;;;;11.40;5.32;;;;;;;-3.08;72.09;99337.97;5037200;28;20032;-74
2022/03/07 04:42:27;;;;;;;12.93;5.88;;;;;;;-2.85;72.18;99354.09;5043331;28;20044;-74
2022/03/07 04:44:52;;;;;;;10.98;6.07;;;;;;;-2.88;72.15;99342.78;5047568;28;20421;-74
2022/03/07 04:47:17;;;;;;;12.20;5.53;;;;;;;-2.82;71.80;99338.84;5050540;28;20535;-74
2022/03/07 04:49:43;;;;;;;15.70;5.85;;;;;;;-2.64;71.03;99360.56;5051669;28;20032;-74
2022/03/07 04:52:08;;;;;;;11.00;6.00;;;;;;;-2.64;71.09;99352.63;5032631;28;20117;-73
2022/03/07 04:54:34;;;;;;;10.43;5.30;;;;;;;-2.45;70.01;99357.47;5027081;28;20025;-74
2022/03/07 04:56:59;;;;;;;7.68;5.13;;;;;;;-2.45;69.84;99338.94;5052453;28;20025;-73
2022/03/07 04:59:25;;;;;;;11.50;5.13;;;;;;;-2.61;69.21;99306.53;5032302;28;20025;-75
2022/03/07 05:01:50;;;;;;;11.05;5.05;;;;;;;-2.48;69.21;99339.16;5048282;28;20118;-73
2022/03/07 05:04:16;;;;;;;11.18;5.38;;;;;;;-2.44;70.05;99364.47;5036108;28;20099;-73
2022/03/07 05:06:41;;;;;;;9.40;5.00;;;;;;;-2.60;70.05;99354.09;5055499;28;20372;-75
2022/03/07 05:09:06;;;;;;;8.82;5.50;;;;;;;-2.59;69.65;99358.47;5051065;28;20029;-80
2022/03/07 05:11:32;;;;;;;9.80;4.82;;;;;;;-2.67;70.06;99355.50;5064464;28;20025;-77
2022/03/07 05:13:57;;;;;;;10.82;4.75;;;;;;;-2.65;69.82;99353.56;5032661;28;20033;-77
2022/03/07 05:16:23;;;;;;;8.20;4.95;;;;;;;-2.73;69.80;99353.25;5047744;28;20111;-78
2022/03/07 05:18:49;;;;;;;10.07;4.88;;;;;;;-2.71;70.03;99354.84;5026520;28;20064;-73
2022/03/07 05:21:15;;;;;;;11.27;5.32;;;;;;;-2.62;70.26;99373.69;5043118;28;20043;-74
2022/03/07 05:23:40;;;;;;;12.20;5.20;;;;;;;-2.82;70.00;99348.59;5025279;28;20558;-79
2022/03/07 05:26:08;;;;;;;9.68;4.90;;;;;;;-2.78;70.16;99361.50;5038935;28;20056;-79
2022/03/07 05:28:33;;;;;;;8.40;4.68;;;;;;;-3.20;69.89;99310.53;5032397;28;20100;-79
2022/03/07 05:30:59;;;;;;;8.05;4.60;;;;;;;-2.98;70.59;99367.34;5040318;28;20499;-76
2022/03/07 05:33:24;;;;;;;7.85;4.55;;;;;;;-3.19;71.23;99359.03;5045733;28;20029;-77
2022/03/07 05:35:49;;;;;;;9.55;5.13;;;;;;;-3.14;71.48;99373.66;5054267;28;20108;-76
2022/03/07 05:38:15;;;;;;;10.40;5.07;;;;;;;-3.18;71.56;99369.50;5046151;28;20032;-73
2022/03/07 05:40:40;;;;;;;11.75;5.22;;;;;;;-3.28;71.80;99363.13;5041406;28;20109;-77
2022/03/07 05:43:05;;;;;;;11.98;4.88;;;;;;;-3.24;71.68;99371.72;5053664;28;20031;-75
2022/03/07 05:45:31;;;;;;;7.80;4.40;;;;;;;-3.25;71.29;99378.78;5050151;28;20029;-77
2022/03/07 05:47:56;;;;;;;8.80;4.47;;;;;;;-3.24;71.61;99383.16;5039511;28;20098;-74
2022/03/07 05:50:21;;;;;;;9.85;5.30;;;;;;;-3.25;71.39;99380.59;5031810;28;20033;-74
2022/03/07 05:52:47;;;;;;;8.98;4.60;;;;;;;-3.21;71.20;99382.09;5052340;28;20032;-74
2022/03/07 05:55:12;;;;;;;7.65;4.30;;;;;;;-3.24;71.15;99377.03;5054337;28;20032;-75
2022/03/07 05:57:37;;;;;;;10.95;4.25;;;;;;;-3.25;70.93;99373.50;5054887;28;20029;-76
2022/03/07 06:00:06;;;;;;;7.82;4.78;;;;;;;-3.18;71.05;99376.59;5028574;28;20044;-76
2022/03/07 06:02:31;;;;;;;7.93;4.55;;;;;;;-3.03;70.58;99388.81;5025195;28;20068;-76
2022/03/07 06:04:56;;;;;;;7.47;4.28;;;;;;;-2.93;70.35;99400.47;5055054;28;20033;-74
2022/03/07 06:07:21;;;;;;;8.18;4.60;;;;;;;-2.82;69.82;99399.75;5054909;28;20033;-76
2022/03/07 06:09:47;;;;;;;6.55;4.30;;;;;;;-2.94;70.10;99379.38;5036897;28;20025;-76
2022/03/07 06:12:12;;;;;;;7.50;3.97;;;;;;;-2.79;69.63;99388.09;5052985;28;20025;-76
2022/03/07 06:14:37;;;;;;;7.00;4.22;;;;;;;-2.70;69.26;99382.16;5036095;28;20025;-76
2022/03/07 06:17:03;;;;;;;8.05;4.40;;;;;;;-2.72;68.94;99373.50;5054117;28;20082;-75
2022/03/07 06:19:28;;;;;;;9.20;4.60;;;;;;;-2.67;68.43;99366.09;5025821;28;20030;-75
2022/03/07 06:21:53;;;;;;;6.10;4.00;;;;;;;-2.34;67.64;99394.66;5040589;28;20059;-75
2022/03/07 06:24:19;;;;;;;11.45;4.32;;;;;;;-1.77;65.95;99391.50;5039827;28;20500;-74
2022/03/07 06:26:44;;;;;;;11.50;4.65;;;;;;;-1.14;62.58;99373.59;5051542;28;20075;-74
2022/03/07 06:29:10;;;;;;;7.65;4.40;;;;;;;-1.16;62.44;99372.88;5036364;28;20024;-76
2022/03/07 06:31:35;;;;;;;8.30;4.03;;;;;;;-1.18;62.96;99398.69;5050315;28;20036;-73
2022/03/07 06:34:00;;;;;;;7.28;4.10;;;;;;;-0.22;60.49;99379.81;5051764;28;20060;-73
2022/03/07 06:36:26;;;;;;;7.50;4.45;;;;;;;1.18;55.92;99372.91;5051270;28;20056;-73
2022/03/07 06:38:51;;;;;;;8.05;4.22;;;;;;;1.99;52.83;99371.25;5043693;28;20024;-73
2022/03/07 06:41:16;;;;;;;6.97;4.25;;;;;;;2.47;51.15;99385.75;5039946;28;20082;-73
2022/03/07 06:43:41;;;;;;;6.57;3.90;;;;;;;2.93;49.76;99358.34;5060201;28;20035;-73
2022/03/07 06:46:07;;;;;;;6.90;4.05;;;;;;;3.51;48.13;99360.09;5053806;28;20037;-75
2022/03/07 06:48:33;;;;;;;6.80;3.67;;;;;;;4.66;45.70;99366.91;5048553;28;20069;-73
2022/03/07 06:50:58;;;;;;;8.15;3.95;;;;;;;5.42;44.05;99361.03;5036216;28;20376;-71
2022/03/07 06:53:24;;;;;;;6.35;4.00;;;;;;;6.12;41.99;99374.41;5036386;28;20028;-74
2022/03/07 06:55:49;;;;;;;6.75;3.85;;;;;;;6.56;40.49;99372.41;5042283;28;20368;-75
2022/03/07 06:58:14;;;;;;;10.77;4.38;;;;;;;6.87;39.73;99382.56;5038089;28;20033;-71
2022/03/07 07:00:39;;;;;;;6.88;4.25;;;;;;;7.11;39.66;99384.44;5048508;28;20028;-72
2022/03/07 07:03:05;;;;;;;6.32;4.20;;;;;;;7.71;38.07;99372.50;5039835;28;20036;-74
2022/03/07 07:05:30;;;;;;;7.93;5.07;;;;;;;7.80;37.68;99384.91;5049927;28;20542;-73
2022/03/07 07:07:56;;;;;;;8.38;4.63;;;;;;;7.08;38.59;99398.25;5052436;28;20050;-73
2022/03/07 07:10:21;;;;;;;7.18;4.70;;;;;;;7.48;37.31;99366.94;5051390;28;20033;-74
2022/03/07 07:12:48;;;;;;;7.85;5.05;;;;;;;7.52;37.29;99397.94;5038346;28;20040;-72
2022/03/07 07:15:13;;;;;;;8.65;5.35;;;;;;;7.10;38.24;99400.75;5050332;28;20032;-71
2022/03/07 07:17:39;;;;;;;11.15;5.63;;;;;;;7.58;37.67;99408.00;5051107;28;20578;-72
2022/03/07 07:20:06;;;;;;;8.45;5.22;;;;;;;7.83;37.57;99421.44;5052154;28;20057;-71
2022/03/07 07:22:32;;;;;;;13.35;6.38;;;;;;;8.60;35.96;99419.06;5047225;28;20458;-73
2022/03/07 07:24:57;;;;;;;10.20;5.80;;;;;;;8.95;35.03;99412.28;5045157;28;20111;-78
2022/03/07 07:27:23;;;;;;;11.70;6.68;;;;;;;8.53;35.93;99401.91;5050298;28;20021;-75
2022/03/07 07:29:48;;;;;;;9.80;6.28;;;;;;;7.34;37.54;99410.72;5037465;28;20013;-76
2022/03/07 07:32:13;;;;;;;9.05;5.90;;;;;;;8.71;35.44;99399.78;5052369;28;20090;-76
2022/03/07 07:34:39;;;;;;;10.20;6.80;;;;;;;8.71;35.88;99413.28;5044426;28;20155;-74
2022/03/07 07:37:04;;;;;;;11.38;6.07;;;;;;;8.70;36.01;99418.88;5048248;28;20491;-72
2022/03/07 07:39:29;;;;;;;10.50;6.65;;;;;;;9.05;35.21;99400.44;5050110;28;20028;-71
2022/03/07 07:41:56;;;;;;;10.68;6.40;;;;;;;9.11;34.39;99407.81;5036598;28;20020;-75
2022/03/07 07:44:21;;;;;;;11.23;6.53;;;;;;;8.22;35.70;99407.22;5038577;28;20377;-73
2022/03/07 07:46:47;;;;;;;11.20;6.25;;;;;;;9.07;35.05;99411.91;5048344;28;20029;-73
2022/03/07 07:49:12;;;;;;;12.48;6.78;;;;;;;9.78;33.38;99421.47;5046632;28;20028;-75
2022/03/07 07:51:37;;;;;;;12.70;6.93;;;;;;;8.35;35.21;99399.41;5038256;28;20035;-76
2022/03/07 07:57:24;;;;;;;11.23;6.78;;;;;;;9.70;33.69;99426.94;5048245;28;20048;-70
2022/03/07 07:59:50;;;;;;;12.38;7.10;;;;;;;9.07;34.36;99414.63;5046727;28;20033;-71
2022/03/07 08:02:15;;;;;;;13.50;7.03;;;;;;;9.72;33.77;99430.31;5045535;28;20120;-71
2022/03/07 08:04:40;;;;;;;11.68;7.57;;;;;;;10.15;32.88;99438.69;5045019;28;20033;-71
2022/03/07 08:07:06;;;;;;;10.50;6.75;;;;;;;9.30;34.00;99453.25;5040524;28;20033;-70
2022/03/07 08:09:31;;;;;;;12.40;7.15;;;;;;;10.13;33.00;99443.41;5042037;28;20017;-70
2022/03/07 08:11:57;;;;;;;11.13;7.35;;;;;;;9.71;33.12;99447.53;5042252;28;20098;-71
2022/03/07 08:14:23;;;;;;;11.75;6.72;;;;;;;9.26;33.50;99453.78;5029310;28;20040;-71
2022/03/07 08:16:49;;;;;;;10.63;6.72;;;;;;;9.49;33.65;99434.91;5040514;28;20111;-77
2022/03/07 08:19:15;;;;;;;11.18;7.10;;;;;;;9.32;34.26;99450.38;5050506;28;20112;-74
2022/03/07 08:21:41;;;;;;;10.10;6.63;;;;;;;9.73;33.51;99447.34;5042027;28;20061;-74
2022/03/07 08:24:06;;;;;;;11.13;6.80;;;;;;;11.16;31.25;99436.25;5041226;28;20040;-75
2022/03/07 08:26:32;;;;;;;13.55;6.95;;;;;;;11.10;30.00;99443.28;5045859;28;20059;-78
2022/03/07 08:28:57;;;;;;;12.80;7.45;;;;;;;10.93;30.64;99434.56;5030580;28;20485;-72
2022/03/07 08:31:23;;;;;;;11.27;7.15;;;;;;;10.84;30.74;99445.69;5056153;28;20063;-75
2022/03/07 08:33:48;;;;;;;10.05;6.78;;;;;;;11.28;29.49;99404.09;5050564;28;20374;-76
2022/03/07 08:36:13;;;;;;;9.95;7.03;;;;;;;10.90;30.16;99439.53;5033970;28;20021;-74
2022/03/07 08:38:39;;;;;;;10.63;6.80;;;;;;;9.27;32.23;99453.59;5041165;28;20022;-71
2022/03/07 08:41:04;;;;;;;10.13;7.05;;;;;;;10.00;30.99;99448.63;5051315;28;20068;-75
2022/03/07 08:43:30;;;;;;;10.55;7.22;;;;;;;9.38;31.84;99450.50;5057491;28;20096;-76
2022/03/07 08:45:55;;;;;;;13.25;7.55;;;;;;;7.17;34.94;99466.34;5037622;28;20025;-78
2022/03/07 08:48:20;;;;;;;11.25;7.43;;;;;;;8.06;34.54;99459.31;5033001;28;20031;-74
2022/03/07 09:00:51;;;;;;;8.93;6.38;;;;;;;9.02;31.97;99471.81;5055368;28;20376;-75
2022/03/07 09:03:16;;;;;;;9.77;6.75;;;;;;;9.34;31.63;99467.25;5057784;28;20024;-75
2022/03/07 09:05:42;;;;;;;22.90;11.52;;;;;;;11.70;28.63;99459.31;5055366;28;20028;-72
2022/03/07 09:08:07;;;;;;;12.63;6.65;;;;;;;10.48;30.00;99462.72;5089226;22;20130;-67
2022/03/07 09:20:38;;;;;;;11.90;6.53;;;;;;;11.42;29.14;99473.63;5027309;28;21032;-68
2022/03/07 09:23:03;;;;;;;8.70;6.15;;;;;;;12.55;26.70;99438.47;5033557;28;20037;-76
2022/03/07 09:25:29;;;;;;;9.50;6.65;;;;;;;13.03;25.49;99452.91;5016363;28;20029;-75
2022/03/07 09:27:54;;;;;;;9.48;6.43;;;;;;;13.06;25.32;99446.22;5016887;28;20061;-76
2022/03/07 09:30:19;;;;;;;7.88;6.10;;;;;;;12.45;25.62;99458.69;5031707;28;20455;-75
2022/03/07 09:32:45;;;;;;;8.63;6.50;;;;;;;13.78;24.59;99442.84;5020689;28;20467;-76
2022/03/07 09:35:10;;;;;;;7.45;5.63;;;;;;;14.19;24.19;99458.09;5034947;28;20025;-74
2022/03/07 09:37:36;;;;;;;7.88;6.07;;;;;;;13.27;24.42;99448.81;5034031;28;20021;-71
2022/03/07 09:40:03;;;;;;;8.32;5.90;;;;;;;12.56;25.86;99470.03;5023083;28;20026;-70
2022/03/07 09:42:28;;;;;;;8.30;6.10;;;;;;;13.04;24.61;99470.88;5027596;28;20036;-70
2022/03/07 09:44:54;;;;;;;9.57;6.50;;;;;;;13.95;24.03;99456.88;5021497;28;20014;-71
2022/03/07 09:47:21;;;;;;;10.35;7.05;;;;;;;13.62;24.28;99486.75;5024221;28;20029;-70
2022/03/07 09:49:49;;;;;;;9.40;6.47;;;;;;;12.90;25.07;99490.88;5012542;28;20021;-68
2022/03/07 09:52:14;;;;;;;9.77;6.40;;;;;;;13.33;25.38;99471.63;5024444;28;20022;-69
2022/03/07 09:54:40;;;;;;;8.57;6.22;;;;;;;13.55;24.77;99480.47;5029570;28;20393;-73
2022/03/07 09:57:05;;;;;;;11.80;6.47;;;;;;;13.27;24.52;99478.72;5026308;28;20026;-71
2022/03/07 09:59:32;;;;;;;10.65;6.32;;;;;;;12.81;24.89;99454.91;5012493;28;20071;-73
2022/03/07 10:02:07;;;;;;;8.10;6.20;;;;;;;13.02;24.46;99472.97;5026665;28;20029;-71
2022/03/07 10:04:41;;;;;;;8.68;6.30;;;;;;;13.76;24.17;99488.44;5015540;28;20377;-71
2022/03/07 10:07:07;;;;;;;7.55;6.25;;;;;;;12.40;25.04;99482.03;5026752;28;20022;-74
2022/03/07 10:09:32;;;;;;;8.07;6.18;;;;;;;12.90;25.50;99477.28;5032731;28;20013;-75
2022/03/07 10:12:05;;;;;;;9.70;6.60;;;;;;;13.38;24.51;99450.94;5019125;28;20025;-72
2022/03/07 10:14:44;;;;;;;7.97;6.30;;;;;;;13.23;24.11;99472.00;5033479;28;20025;-68
2022/03/07 10:17:26;;;;;;;8.70;6.20;;;;;;;13.82;23.48;99467.75;5029953;28;20084;-72
2022/03/07 10:19:56;;;;;;;7.85;6.10;;;;;;;15.25;22.78;99472.53;5030969;28;20025;-75
2022/03/07 10:22:27;;;;;;;10.93;7.22;;;;;;;14.89;22.49;99477.47;5015639;28;20025;-75
2022/03/07 10:25:08;;;;;;;8.52;6.28;;;;;;;12.79;24.62;99457.00;5012249;28;20036;-73
2022/03/07 10:27:37;;;;;;;9.98;6.60;;;;;;;12.48;24.60;99471.00;5033626;28;20054;-71
2022/03/07 10:30:33;;;;;;;8.60;6.60;;;;;;;14.33;23.38;99479.88;5016318;28;20022;-69
2022/03/07 10:33:05;;;;;;;9.43;6.80;;;;;;;14.21;23.89;99466.06;5011411;28;20041;-72
2022/03/07 10:35:40;;;;;;;9.20;6.68;;;;;;;14.00;24.03;99483.44;5033615;28;20096;-69
2022/03/07 10:38:11;;;;;;;7.75;6.50;;;;;;;14.20;23.08;99486.16;5031791;28;20389;-70
2022/03/07 10:40:41;;;;;;;10.15;7.15;;;;;;;14.17;22.99;99487.44;5045214;28;20042;-68
2022/03/07 10:43:07;;;;;;;6.68;5.45;;;;;;;14.49;23.33;99463.09;5042358;28;20092;-68
2022/03/07 10:45:46;;;;;;;9.00;6.22;;;;;;;15.05;22.80;99473.44;5027650;28;20492;-69
2022/03/07 10:48:12;;;;;;;8.27;6.65;;;;;;;15.21;21.51;99454.91;5032709;28;20033;-70
2022/03/07 10:50:37;;;;;;;8.65;6.72;;;;;;;14.00;23.33;99464.41;5015358;28;20159;-70
2022/03/07 10:53:06;;;;;;;11.70;6.30;;;;;;;12.10;25.17;99478.66;5009267;28;20028;-71
2022/03/07 10:55:33;;;;;;;9.82;7.10;;;;;;;11.58;26.21;99481.53;5026950;28;20025;-69
2022/03/07 10:58:05;;;;;;;9.13;6.70;;;;;;;12.45;25.88;99487.69;5030361;28;20408;-68
2022/03/07 11:00:31;;;;;;;9.75;7.00;;;;;;;14.10;24.00;99469.44;5011313;28;20079;-68
2022/03/07 11:02:56;;;;;;;8.57;6.53;;;;;;;14.29;22.97;99470.47;5022879;28;20033;-72
2022/03/07 11:05:22;;;;;;;7.47;6.38;;;;;;;13.23;24.75;99474.72;5024905;28;20017;-69
2022/03/07 11:07:49;;;;;;;9.57;7.18;;;;;;;12.93;24.55;99474.16;5014826;28;20490;-70
2022/03/07 11:10:16;;;;;;;8.95;6.97;;;;;;;13.18;24.58;99476.34;5032640;28;20013;-69
2022/03/07 11:12:42;;;;;;;12.75;7.32;;;;;;;13.35;24.21;99473.09;5026988;28;20505;-70
2022/03/07 11:15:09;;;;;;;7.75;6.53;;;;;;;14.89;23.00;99455.69;5029283;28;20132;-70
2022/03/07 11:17:42;;;;;;;9.32;6.95;;;;;;;14.42;23.04;99471.28;5015150;28;20048;-70
2022/03/07 11:20:10;;;;;;;9.35;6.57;;;;;;;15.30;21.86;99454.44;5026307;28;20302;-70
2022/03/07 11:22:36;;;;;;;7.45;6.22;;;;;;;14.53;22.51;99455.38;5031091;28;20033;-70
2022/03/07 11:25:04;;;;;;;7.75;6.90;;;;;;;13.87;23.36;99450.81;5027997;28;20104;-70
2022/03/07 11:27:30;;;;;;;11.13;7.38;;;;;;;13.99;23.30;99447.25;5030146;28;20021;-70
2022/03/07 11:29:55;;;;;;;9.43;7.05;;;;;;;15.56;21.19;99441.69;5029969;28;20036;-71
2022/03/07 11:32:21;;;;;;;8.57;7.07;;;;;;;15.45;22.28;99443.22;5011316;28;20035;-69
2022/03/07 11:34:58;;;;;;;8.40;6.80;;;;;;;13.59;23.07;99421.91;5028360;28;20485;-69
2022/03/07 11:37:29;;;;;;;8.25;6.43;;;;;;;13.08;24.22;99455.00;5027987;28;20428;-69
2022/03/07 11:39:58;;;;;;;9.10;7.22;;;;;;;14.19;23.12;99440.94;5029338;28;20025;-69
2022/03/07 11:42:23;;;;;;;;;;;;;;;15.17;21.49;99431.84;5028928;28;20100;-69
2022/03/07 11:44:49;;;;;;;9.90;7.10;;;;;;;14.86;22.14;99419.88;5026908;28;19924;-69
2022/03/07 11:47:18;;;;;;;10.02;8.05;;;;;;;13.40;23.20;99439.03;5028442;28;20026;-69
2022/03/07 11:49:45;;;;;;;9.37;7.17;;;;;;;14.13;23.09;99420.03;5026681;28;20025;-69